createdAt,value
2022-10-19T00:01:23.726Z,100.00
2022-10-19T00:03:56.076Z,100.00
2022-10-19T00:06:31.471Z,100.00
2022-10-19T00:09:15.364Z,100.00
2022-10-19T00:11:47.859Z,100.00
2022-10-19T00:14:21.933Z,100.00
2022-10-19T00:16:52.872Z,100.00
2022-10-19T00:19:28.001Z,100.00
2022-10-19T00:21:57.567Z,100.00
2022-10-19T00:24:24.227Z,100.00
2022-10-19T00:26:50.864Z,100.00
2022-10-19T00:29:17.864Z,100.00
2022-10-19T00:31:44.749Z,100.00
2022-10-19T00:34:12.042Z,100.00
2022-10-19T00:36:41.564Z,100.00
2022-10-19T00:39:14.533Z,100.00
2022-10-19T00:41:46.992Z,100.00
2022-10-19T00:44:13.758Z,100.00
2022-10-19T00:46:45.702Z,100.00
2022-10-19T00:49:26.108Z,100.00
2022-10-19T00:52:16.206Z,100.00
2022-10-19T00:54:46.609Z,100.00
2022-10-19T00:57:15.013Z,100.00
2022-10-19T00:59:47.411Z,100.00
2022-10-19T01:02:14.503Z,100.00
2022-10-19T01:04:51.812Z,100.00
2022-10-19T01:07:20.616Z,100.00
2022-10-19T01:09:47.508Z,100.00
2022-10-19T01:12:41.746Z,100.00
2022-10-19T01:15:35.088Z,100.00
2022-10-19T01:18:13.518Z,100.00
2022-10-19T01:21:26.002Z,100.00
2022-10-19T01:24:14.257Z,100.00
2022-10-19T01:27:53.083Z,100.00
2022-10-19T01:30:54.437Z,100.00
2022-10-19T01:33:50.679Z,100.00
2022-10-19T01:36:53.505Z,100.00
2022-10-19T01:39:59.544Z,100.00
2022-10-19T01:42:49.586Z,100.00
2022-10-19T01:45:50.043Z,100.00
2022-10-19T01:48:34.642Z,100.00
2022-10-19T01:51:33.881Z,100.00
2022-10-19T01:54:10.195Z,100.00
2022-10-19T01:56:45.715Z,100.00
2022-10-19T01:59:19.625Z,100.00
2022-10-19T02:01:53.940Z,100.00
2022-10-19T02:04:24.988Z,100.00
2022-10-19T02:06:55.441Z,100.00
2022-10-19T02:09:22.729Z,100.00
2022-10-19T02:12:00.745Z,100.00
2022-10-19T02:14:37.164Z,100.00
2022-10-19T02:17:19.107Z,100.00
2022-10-19T02:19:46.059Z,100.00
2022-10-19T02:22:13.918Z,100.00
2022-10-19T02:24:40.614Z,100.00
2022-10-19T02:27:09.466Z,100.00
2022-10-19T02:29:39.726Z,100.00
2022-10-19T02:32:09.919Z,100.00
2022-10-19T02:34:39.383Z,100.00
2022-10-19T02:37:07.480Z,100.00
2022-10-19T02:39:34.702Z,100.00
2022-10-19T02:42:23.561Z,100.00
2022-10-19T02:45:06.816Z,100.00
2022-10-19T02:48:00.788Z,100.00
2022-10-19T02:50:29.146Z,100.00
2022-10-19T02:52:59.715Z,100.00
2022-10-19T02:55:26.444Z,100.00
2022-10-19T02:57:53.795Z,100.00
2022-10-19T03:00:20.759Z,100.00
2022-10-19T03:02:50.150Z,100.00
2022-10-19T03:05:17.013Z,100.00
2022-10-19T03:07:43.871Z,100.00
2022-10-19T03:10:10.803Z,100.00
2022-10-19T03:12:37.557Z,100.00
2022-10-19T03:15:05.585Z,100.00
2022-10-19T03:17:32.624Z,100.00
2022-10-19T03:19:59.691Z,100.00
2022-10-19T03:22:26.406Z,100.00
2022-10-19T03:24:53.121Z,100.00
2022-10-19T03:27:19.837Z,100.00
2022-10-19T03:29:46.548Z,100.00
2022-10-19T03:32:13.287Z,100.00
2022-10-19T03:34:40.019Z,100.00
2022-10-19T03:37:08.487Z,100.00
2022-10-19T03:39:35.751Z,100.00
2022-10-19T03:42:02.405Z,100.00
2022-10-19T03:44:29.173Z,100.00
2022-10-19T03:46:56.101Z,100.00
2022-10-19T03:49:22.830Z,100.00
2022-10-19T03:51:49.703Z,100.00
2022-10-19T03:54:17.579Z,100.00
2022-10-19T03:56:44.599Z,100.00
2022-10-19T03:59:15.838Z,100.00
2022-10-19T04:01:48.295Z,100.00
2022-10-19T04:04:18.969Z,100.00
2022-10-19T04:06:49.896Z,100.00
2022-10-19T04:09:21.632Z,100.00
2022-10-19T04:11:50.240Z,100.00
2022-10-19T04:14:31.655Z,100.00
2022-10-19T04:17:03.074Z,100.00
2022-10-19T04:19:30.023Z,100.00
2022-10-19T04:21:56.951Z,100.00
2022-10-19T04:24:24.037Z,100.00
2022-10-19T04:26:54.971Z,100.00
2022-10-19T04:29:29.518Z,100.00
2022-10-19T04:31:58.930Z,100.00
2022-10-19T04:34:25.705Z,100.00
2022-10-19T04:36:53.972Z,100.00
2022-10-19T04:39:23.811Z,100.00
2022-10-19T04:41:50.532Z,100.00
2022-10-19T04:44:17.304Z,100.00
2022-10-19T04:46:43.994Z,100.00
2022-10-19T04:49:10.864Z,100.00
2022-10-19T04:51:40.160Z,100.00
2022-10-19T04:54:06.888Z,100.00
2022-10-19T05:18:06.032Z,100.00
2022-10-19T05:20:32.892Z,100.00
2022-10-19T05:23:06.234Z,100.00
2022-10-19T05:25:38.500Z,100.00
2022-10-19T05:33:33.935Z,100.00
2022-10-19T05:36:10.637Z,100.00
2022-10-19T05:41:20.641Z,100.00
2022-10-19T05:52:00.783Z,100.00
2022-10-19T06:35:03.473Z,100.00
2022-10-19T06:40:12.256Z,100.00
2022-10-19T06:48:07.629Z,100.00
2022-10-19T06:50:46.508Z,100.00
2022-10-19T06:55:58.799Z,100.00
2022-10-19T07:11:59.772Z,100.00
2022-10-19T07:14:32.308Z,100.00
2022-10-19T07:19:39.917Z,100.00
2022-10-19T07:22:09.017Z,100.00
2022-10-19T07:24:36.301Z,100.00
2022-10-19T07:32:25.297Z,100.00
2022-10-19T07:37:38.974Z,100.00
2022-10-19T07:45:33.053Z,100.00
2022-10-19T07:48:00.792Z,100.00
2022-10-19T07:53:11.816Z,100.00
2022-10-19T08:06:55.646Z,100.00
2022-10-19T08:09:50.965Z,98.50
2022-10-19T08:12:14.619Z,97.95
2022-10-19T08:54:04.951Z,83.69
2022-10-19T09:00:08.309Z,86.47
2022-10-19T09:03:13.258Z,90.33
2022-10-19T09:06:40.838Z,90.24
2022-10-19T09:09:14.618Z,88.33
2022-10-19T09:15:27.591Z,85.93
2022-10-19T09:17:56.986Z,86.77
2022-10-19T09:20:44.822Z,87.05
2022-10-19T09:29:46.240Z,86.41
2022-10-19T09:35:43.648Z,81.06
2022-10-19T09:38:19.825Z,79.66
2022-10-19T09:40:46.683Z,78.72
2022-10-19T09:43:21.100Z,76.37
2022-10-19T09:46:11.599Z,75.67
2022-10-19T09:48:59.088Z,76.01
2022-10-19T09:51:26.287Z,72.65
2022-10-19T10:05:15.685Z,69.30
2022-10-19T10:16:16.431Z,62.13
2022-10-19T10:19:05.316Z,67.82
2022-10-19T10:21:50.875Z,69.93
2022-10-19T10:24:22.738Z,65.48
2022-10-19T10:26:59.942Z,65.02
2022-10-19T10:29:36.980Z,61.31
2022-10-19T10:35:01.350Z,62.72
2022-10-19T10:40:32.569Z,64.96
2022-10-19T10:49:32.177Z,65.87
2022-10-19T10:52:09.852Z,66.28
2022-10-19T11:00:16.493Z,61.80
2022-10-19T11:03:05.120Z,61.63
2022-10-19T11:05:48.153Z,64.66
2022-10-19T11:08:51.462Z,63.41
2022-10-19T11:11:30.489Z,60.85
2022-10-19T11:14:23.632Z,61.24
2022-10-19T11:16:55.359Z,58.81
2022-10-19T11:19:31.602Z,58.86
2022-10-19T11:22:44.756Z,58.59
2022-10-19T11:25:53.547Z,55.47
2022-10-19T11:28:32.201Z,55.57
2022-10-19T11:31:29.711Z,56.07
2022-10-19T11:34:49.466Z,54.39
2022-10-19T11:37:37.537Z,55.14
2022-10-19T11:41:19.396Z,57.38
2022-10-19T11:44:15.797Z,57.70
2022-10-19T11:47:30.160Z,58.78
2022-10-19T11:50:25.069Z,63.27
2022-10-19T11:53:25.860Z,64.27
2022-10-19T11:57:02.218Z,66.88
2022-10-19T12:00:34.172Z,65.62
2022-10-19T12:03:52.001Z,64.95
2022-10-19T12:07:16.885Z,64.37
2022-10-19T12:10:11.860Z,64.46
2022-10-19T12:12:47.743Z,67.65
2022-10-19T12:15:48.278Z,67.64
2022-10-19T12:18:55.646Z,68.07
2022-10-19T12:21:40.810Z,68.26
2022-10-19T12:24:22.745Z,68.79
2022-10-19T12:26:54.125Z,69.68
2022-10-19T12:29:33.232Z,68.73
2022-10-19T12:32:04.721Z,71.00
2022-10-19T12:35:00.494Z,70.03
2022-10-19T12:37:50.569Z,69.19
2022-10-19T12:40:38.576Z,70.80
2022-10-19T12:43:24.433Z,71.79
2022-10-19T12:46:06.384Z,70.76
2022-10-19T12:48:36.271Z,70.92
2022-10-19T12:51:11.894Z,71.63
2022-10-19T12:53:47.709Z,69.29
2022-10-19T12:56:27.286Z,68.75
2022-10-19T12:59:01.627Z,68.41
2022-10-19T13:01:34.272Z,69.48
2022-10-19T13:04:24.786Z,65.71
2022-10-19T13:06:57.819Z,67.75
2022-10-19T13:09:34.531Z,65.68
2022-10-19T13:12:32.948Z,65.77
2022-10-19T13:15:04.782Z,66.20
2022-10-19T13:17:34.843Z,63.63
2022-10-19T13:20:14.175Z,63.96
2022-10-19T13:22:50.153Z,63.84
2022-10-19T13:25:17.033Z,65.82
2022-10-19T13:27:46.852Z,65.74
2022-10-19T13:30:35.475Z,64.31
2022-10-19T13:33:33.018Z,65.76
2022-10-19T13:35:59.589Z,63.43
2022-10-19T13:38:50.649Z,61.97
2022-10-19T13:41:21.693Z,64.74
2022-10-19T13:44:16.653Z,64.24
2022-10-19T13:47:29.399Z,63.21
2022-10-19T13:51:06.329Z,62.28
2022-10-19T13:54:00.852Z,63.06
2022-10-19T13:56:50.705Z,65.50
2022-10-19T13:59:53.772Z,64.49
2022-10-19T14:02:48.108Z,68.10
2022-10-19T14:06:22.352Z,64.25
2022-10-19T14:09:12.917Z,63.81
2022-10-19T14:11:51.663Z,65.53
2022-10-19T14:14:24.291Z,65.63
2022-10-19T14:17:03.939Z,65.78
2022-10-19T14:19:52.493Z,65.97
2022-10-19T14:22:30.082Z,65.96
2022-10-19T14:25:22.087Z,66.05
2022-10-19T14:28:04.906Z,65.90
2022-10-19T14:30:36.379Z,66.03
2022-10-19T14:33:11.474Z,64.91
2022-10-19T14:35:45.696Z,64.79
2022-10-19T14:38:24.026Z,66.72
2022-10-19T14:40:50.782Z,66.84
2022-10-19T14:43:25.312Z,64.85
2022-10-19T14:46:07.168Z,66.65
2022-10-19T14:48:45.628Z,66.44
2022-10-19T14:51:47.389Z,64.72
2022-10-19T14:54:29.263Z,65.51
2022-10-19T14:57:15.880Z,64.65
2022-10-19T15:00:01.183Z,67.34
2022-10-19T15:02:42.658Z,72.17
2022-10-19T15:05:23.732Z,73.23
2022-10-19T15:07:51.705Z,78.07
2022-10-19T15:10:40.930Z,81.15
2022-10-19T15:13:21.604Z,83.47
2022-10-19T15:15:53.847Z,87.82
2022-10-19T15:18:47.753Z,89.41
2022-10-19T15:21:22.963Z,90.15
2022-10-19T15:23:52.992Z,92.16
2022-10-19T15:26:28.509Z,93.74
2022-10-19T15:29:10.006Z,94.00
2022-10-19T15:31:36.711Z,96.50
2022-10-19T15:34:05.357Z,97.18
2022-10-19T15:36:33.218Z,97.73
2022-10-19T15:39:24.665Z,99.26
2022-10-19T15:44:47.265Z,100.00
2022-10-19T15:50:06.505Z,100.00
2022-10-19T15:52:36.013Z,100.00
2022-10-19T16:00:36.977Z,100.00
2022-10-19T16:05:45.044Z,100.00
2022-10-19T16:08:14.870Z,100.00
2022-10-19T16:16:11.656Z,100.00
2022-10-19T16:18:38.857Z,100.00
2022-10-19T16:21:06.864Z,100.00
2022-10-19T16:42:29.673Z,100.00
2022-10-19T16:45:05.688Z,100.00
2022-10-19T17:14:49.401Z,100.00
2022-10-19T17:17:17.534Z,100.00
2022-10-19T17:28:02.353Z,100.00
2022-10-19T17:30:29.314Z,100.00
2022-10-19T18:08:10.224Z,100.00
2022-10-19T18:32:39.677Z,100.00
2022-10-19T18:35:10.283Z,100.00
2022-10-19T18:37:37.006Z,100.00
2022-10-19T18:40:07.230Z,100.00
2022-10-19T18:42:36.656Z,100.00
2022-10-19T18:45:04.683Z,100.00
2022-10-19T18:47:31.450Z,100.00
2022-10-19T18:50:01.389Z,100.00
2022-10-19T18:52:28.400Z,100.00
2022-10-19T18:54:57.828Z,100.00
2022-10-19T18:57:28.284Z,100.00
2022-10-19T19:05:23.252Z,100.00
2022-10-19T19:07:55.349Z,100.00
2022-10-19T19:10:22.187Z,100.00
2022-10-19T19:23:37.881Z,100.00
2022-10-19T19:28:49.204Z,100.00
2022-10-19T19:31:19.553Z,100.00
2022-10-19T19:33:50.651Z,100.00
2022-10-19T20:46:32.612Z,100.00
2022-10-19T20:49:01.933Z,100.00
2022-10-19T20:51:36.729Z,100.00
2022-10-19T20:54:09.930Z,100.00
2022-10-19T20:56:40.060Z,100.00
2022-10-19T20:59:14.724Z,100.00
2022-10-19T21:01:44.712Z,100.00
2022-10-19T21:04:14.532Z,100.00
2022-10-19T21:06:46.025Z,100.00
2022-10-19T21:09:21.707Z,100.00
2022-10-19T21:11:51.926Z,100.00
2022-10-19T21:14:28.758Z,100.00
2022-10-19T21:17:04.848Z,100.00
2022-10-19T21:19:31.737Z,100.00
2022-10-19T21:22:02.329Z,100.00
2022-10-19T21:24:36.448Z,100.00
2022-10-19T21:27:08.878Z,100.00
2022-10-19T21:29:36.896Z,100.00
2022-10-19T21:32:04.278Z,100.00
2022-10-19T21:34:32.334Z,100.00
2022-10-19T21:36:59.887Z,100.00
2022-10-19T21:39:26.725Z,100.00
2022-10-19T21:41:53.756Z,100.00
2022-10-19T21:44:23.479Z,100.00
2022-10-19T21:46:50.678Z,100.00
2022-10-19T21:49:18.497Z,100.00
2022-10-19T21:51:53.708Z,100.00
2022-10-19T21:54:29.297Z,100.00
2022-10-19T21:57:01.284Z,100.00
2022-10-19T21:59:27.970Z,100.00
2022-10-19T22:01:56.276Z,100.00
2022-10-19T22:04:23.748Z,100.00
2022-10-19T22:06:50.785Z,100.00
2022-10-19T22:09:23.143Z,100.00
2022-10-19T22:11:49.878Z,100.00
2022-10-19T22:14:18.072Z,100.00
2022-10-19T22:16:45.201Z,100.00
2022-10-19T22:19:12.684Z,100.00
2022-10-19T22:21:40.460Z,100.00
2022-10-19T22:24:16.705Z,100.00
2022-10-19T22:26:50.520Z,100.00
2022-10-19T22:29:17.512Z,100.00
2022-10-19T22:31:46.757Z,100.00
2022-10-19T22:34:17.448Z,100.00
2022-10-19T22:36:44.945Z,100.00
2022-10-19T22:39:15.900Z,100.00
2022-10-19T22:41:52.615Z,100.00
2022-10-19T22:44:19.246Z,100.00
2022-10-19T22:46:49.075Z,100.00
2022-10-19T22:49:18.701Z,100.00
2022-10-19T22:51:48.492Z,100.00
2022-10-19T22:54:16.283Z,100.00
2022-10-19T22:56:46.094Z,100.00
2022-10-19T22:59:12.733Z,100.00
2022-10-19T23:01:39.447Z,100.00
2022-10-19T23:04:06.423Z,100.00
2022-10-19T23:06:33.216Z,100.00
2022-10-19T23:08:59.916Z,100.00
2022-10-19T23:11:26.720Z,100.00
2022-10-19T23:13:53.581Z,100.00
2022-10-19T23:16:20.433Z,100.00
2022-10-19T23:18:47.177Z,100.00
2022-10-19T23:21:15.083Z,100.00
2022-10-19T23:23:42.868Z,100.00
2022-10-19T23:26:20.207Z,100.00
2022-10-19T23:28:49.820Z,100.00
2022-10-19T23:31:24.464Z,100.00
2022-10-19T23:33:53.961Z,100.00
2022-10-19T23:36:28.925Z,100.00
2022-10-19T23:39:03.170Z,100.00
2022-10-19T23:41:29.706Z,100.00
2022-10-19T23:43:56.362Z,100.00
2022-10-19T23:46:23.136Z,100.00
2022-10-19T23:48:49.824Z,100.00
2022-10-19T23:51:20.711Z,100.00
2022-10-19T23:53:53.517Z,100.00
2022-10-19T23:56:28.359Z,100.00
2022-10-19T23:58:57.892Z,100.00
